Hovedside
METAR-TAF:

METAR-TAF

Lufthavner :

Dakar, Senegal

breddegrad: 14-40-16N, lengdegrad: 17-04-01W, høyde over havet: 88 m

Gjeldene værobservasjon

Denne rapporten ble laget for 43 minutter siden, klokken 08:00 UTC
Vind 8 kt fra Nord
Temperatur 26°C
Luftfuktighet 89%
Trykk 1013 hPa
Sikt: 8000 m
Få skyer i en høyde av 1500 ft

METAR: GOBD 020800Z 01008KT 8000 FEW015 26/24 Q1013 NOSIG

Tid: 08:43 (08:43 UTC)

Varsel

Denne rapporten ble laget for 3 timer og 43 minutter siden, klokken 05:00 UTC
Varsel gyldig fra 02. klokken 06 UTC til 03. klokken 12 UTC
Vind 8 kt fra Nordvest
Sikt 10 km eller mer
Spredte skyer i en høyde av 1500 ft

TAF: GOBD 020500Z 0206/0312 32008KT 9999 SCT015

Værobservasjoner og værvarsel for over 4000 flyplasser (METAR- og TAF-rapporter).

Tilgjengelige stasjoner er representert av de røde og gule prikkene på kartet.

Hold musepekeren over prikken for å se navnet på stasjonen.

Klikk så for å se værobservasjoner og -varsler.

For å forandre kartet kan du klikke på den grønne knappen med svart kryss for å zoome inn, på den grønne knappen med strek for å zoome ut, eller på de grønne pilene for å se tilstøtende kart.


METAR-TAF: